sensor_id;sensor_type;location;lat;lon;timestamp;pressure;altitude;pressure_sealevel;temperature;humidity
36598;BME280;22607;49.550;11.940;2024-03-02T00:01:36;95813.97;;;5.87;100.00
36598;BME280;22607;49.550;11.940;2024-03-02T00:04:07;95806.50;;;5.75;100.00
36598;BME280;22607;49.550;11.940;2024-03-02T00:06:34;95797.59;;;5.70;100.00
36598;BME280;22607;49.550;11.940;2024-03-02T00:09:01;95798.84;;;5.74;100.00
36598;BME280;22607;49.550;11.940;2024-03-02T00:11:29;95802.59;;;5.80;100.00
36598;BME280;22607;49.550;11.940;2024-03-02T00:13:57;95804.72;;;5.84;100.00
36598;BME280;22607;49.550;11.940;2024-03-02T00:16:30;95801.28;;;5.75;100.00
36598;BME280;22607;49.550;11.940;2024-03-02T00:19:05;95810.78;;;5.68;100.00
36598;BME280;22607;49.550;11.940;2024-03-02T00:21:33;95810.91;;;5.75;100.00
36598;BME280;22607;49.550;11.940;2024-03-02T00:24:00;95810.13;;;5.58;100.00
36598;BME280;22607;49.550;11.940;2024-03-02T00:26:29;95809.31;;;5.65;100.00
36598;BME280;22607;49.550;11.940;2024-03-02T00:28:56;95804.59;;;5.61;100.00
36598;BME280;22607;49.550;11.940;2024-03-02T00:31:25;95798.06;;;5.65;100.00
36598;BME280;22607;49.550;11.940;2024-03-02T00:34:02;95813.69;;;5.73;100.00
36598;BME280;22607;49.550;11.940;2024-03-02T00:36:32;95800.69;;;5.65;100.00
36598;BME280;22607;49.550;11.940;2024-03-02T00:39:01;95801.66;;;5.56;100.00
36598;BME280;22607;49.550;11.940;2024-03-02T00:41:31;95811.78;;;5.59;100.00
36598;BME280;22607;49.550;11.940;2024-03-02T00:46:40;95814.69;;;5.64;100.00
36598;BME280;22607;49.550;11.940;2024-03-02T00:51:50;95803.13;;;5.58;100.00
36598;BME280;22607;49.550;11.940;2024-03-02T00:54:24;95797.59;;;5.53;100.00
36598;BME280;22607;49.550;11.940;2024-03-02T00:56:52;95810.94;;;5.67;100.00
36598;BME280;22607;49.550;11.940;2024-03-02T00:59:23;95812.72;;;5.66;100.00
36598;BME280;22607;49.550;11.940;2024-03-02T01:01:50;95808.66;;;5.63;100.00
36598;BME280;22607;49.550;11.940;2024-03-02T01:04:18;95817.59;;;5.69;100.00
36598;BME280;22607;49.550;11.940;2024-03-02T01:06:45;95815.00;;;5.61;100.00
36598;BME280;22607;49.550;11.940;2024-03-02T01:09:12;95816.78;;;5.69;100.00
36598;BME280;22607;49.550;11.940;2024-03-02T01:11:40;95818.13;;;5.56;100.00
36598;BME280;22607;49.550;11.940;2024-03-02T01:14:09;95814.69;;;5.64;100.00
36598;BME280;22607;49.550;11.940;2024-03-02T01:16:36;95821.53;;;5.57;100.00
36598;BME280;22607;49.550;11.940;2024-03-02T01:19:03;95802.31;;;5.58;100.00
36598;BME280;22607;49.550;11.940;2024-03-02T01:21:31;95816.66;;;5.45;100.00
36598;BME280;22607;49.550;11.940;2024-03-02T01:23:58;95803.81;;;5.44;100.00
36598;BME280;22607;49.550;11.940;2024-03-02T01:26:25;95813.56;;;5.58;100.00
36598;BME280;22607;49.550;11.940;2024-03-02T01:28:51;95809.78;;;5.69;100.00
36598;BME280;22607;49.550;11.940;2024-03-02T01:31:19;95816.94;;;5.75;100.00
36598;BME280;22607;49.550;11.940;2024-03-02T01:33:46;95815.28;;;5.83;100.00
36598;BME280;22607;49.550;11.940;2024-03-02T01:36:13;95813.34;;;5.76;100.00
36598;BME280;22607;49.550;11.940;2024-03-02T01:38:40;95821.66;;;5.72;100.00
36598;BME280;22607;49.550;11.940;2024-03-02T01:41:07;95825.88;;;5.81;100.00
36598;BME280;22607;49.550;11.940;2024-03-02T01:43:34;95815.81;;;5.70;100.00
36598;BME280;22607;49.550;11.940;2024-03-02T01:46:06;95827.88;;;5.54;100.00
36598;BME280;22607;49.550;11.940;2024-03-02T01:48:32;95812.09;;;5.56;100.00
36598;BME280;22607;49.550;11.940;2024-03-02T01:51:02;95822.84;;;5.52;100.00
36598;BME280;22607;49.550;11.940;2024-03-02T01:53:30;95822.00;;;5.69;100.00
36598;BME280;22607;49.550;11.940;2024-03-02T01:55:57;95816.94;;;5.75;100.00
36598;BME280;22607;49.550;11.940;2024-03-02T01:58:24;95809.78;;;5.69;100.00
36598;BME280;22607;49.550;11.940;2024-03-02T02:00:51;95809.13;;;5.67;100.00
36598;BME280;22607;49.550;11.940;2024-03-02T02:03:18;95812.38;;;5.69;100.00
36598;BME280;22607;49.550;11.940;2024-03-02T02:05:46;95800.00;;;5.71;100.00
36598;BME280;22607;49.550;11.940;2024-03-02T02:08:14;95800.50;;;5.75;100.00
36598;BME280;22607;49.550;11.940;2024-03-02T02:10:41;95799.03;;;5.72;100.00
36598;BME280;22607;49.550;11.940;2024-03-02T02:13:09;95792.50;;;5.76;100.00
36598;BME280;22607;49.550;11.940;2024-03-02T02:15:37;95794.00;;;5.71;100.00
36598;BME280;22607;49.550;11.940;2024-03-02T02:18:05;95793.47;;;5.84;100.00
36598;BME280;22607;49.550;11.940;2024-03-02T02:20:32;95797.06;;;5.83;100.00
36598;BME280;22607;49.550;11.940;2024-03-02T02:23:01;95791.31;;;5.87;100.00
36598;BME280;22607;49.550;11.940;2024-03-02T02:25:29;95799.28;;;5.94;100.00
36598;BME280;22607;49.550;11.940;2024-03-02T02:27:57;95798.50;;;5.94;100.00
36598;BME280;22607;49.550;11.940;2024-03-02T02:30:27;95788.72;;;5.87;100.00
36598;BME280;22607;49.550;11.940;2024-03-02T02:32:54;95794.44;;;5.91;100.00
36598;BME280;22607;49.550;11.940;2024-03-02T02:35:25;95784.97;;;5.90;100.00
36598;BME280;22607;49.550;11.940;2024-03-02T02:37:54;95795.69;;;5.95;100.00
36598;BME280;22607;49.550;11.940;2024-03-02T02:40:23;95781.88;;;5.86;100.00
36598;BME280;22607;49.550;11.940;2024-03-02T02:42:50;95786.91;;;5.96;100.00
36598;BME280;22607;49.550;11.940;2024-03-02T02:45:19;95789.97;;;6.00;100.00
36598;BME280;22607;49.550;11.940;2024-03-02T02:47:46;95798.63;;;6.00;100.00
36598;BME280;22607;49.550;11.940;2024-03-02T02:50:14;95768.03;;;5.86;100.00
36598;BME280;22607;49.550;11.940;2024-03-02T02:52:42;95786.22;;;6.02;100.00
36598;BME280;22607;49.550;11.940;2024-03-02T02:55:11;95796.94;;;6.16;100.00
36598;BME280;22607;49.550;11.940;2024-03-02T02:57:41;95781.31;;;6.16;100.00
36598;BME280;22607;49.550;11.940;2024-03-02T03:00:13;95793.66;;;6.22;100.00
36598;BME280;22607;49.550;11.940;2024-03-02T03:02:48;95786.53;;;6.16;100.00
36598;BME280;22607;49.550;11.940;2024-03-02T03:05:18;95791.53;;;6.26;100.00
36598;BME280;22607;49.550;11.940;2024-03-02T03:07:46;95787.47;;;6.23;100.00
36598;BME280;22607;49.550;11.940;2024-03-02T03:10:18;95796.63;;;6.19;100.00
36598;BME280;22607;49.550;11.940;2024-03-02T03:12:45;95788.44;;;6.22;100.00
36598;BME280;22607;49.550;11.940;2024-03-02T03:15:19;95787.13;;;6.26;100.00
36598;BME280;22607;49.550;11.940;2024-03-02T03:17:47;95787.78;;;6.28;100.00
36598;BME280;22607;49.550;11.940;2024-03-02T03:20:15;95798.16;;;6.37;100.00
36598;BME280;22607;49.550;11.940;2024-03-02T03:22:42;95795.94;;;6.25;100.00
36598;BME280;22607;49.550;11.940;2024-03-02T03:25:10;95799.66;;;6.31;100.00
36598;BME280;22607;49.550;11.940;2024-03-02T03:27:41;95800.13;;;6.35;100.00
36598;BME280;22607;49.550;11.940;2024-03-02T03:30:11;95794.63;;;6.29;100.00
36598;BME280;22607;49.550;11.940;2024-03-02T03:32:38;95808.59;;;6.37;100.00
36598;BME280;22607;49.550;11.940;2024-03-02T03:35:06;95803.38;;;6.37;100.00
36598;BME280;22607;49.550;11.940;2024-03-02T03:37:33;95824.03;;;6.47;100.00
36598;BME280;22607;49.550;11.940;2024-03-02T03:40:05;95818.34;;;6.43;100.00
36598;BME280;22607;49.550;11.940;2024-03-02T03:42:38;95821.59;;;6.45;100.00
36598;BME280;22607;49.550;11.940;2024-03-02T03:45:06;95821.53;;;6.53;100.00
36598;BME280;22607;49.550;11.940;2024-03-02T03:47:33;95819.38;;;6.34;100.00
36598;BME280;22607;49.550;11.940;2024-03-02T03:50:05;95823.13;;;6.31;100.00
36598;BME280;22607;49.550;11.940;2024-03-02T03:52:33;95818.69;;;6.40;100.00
36598;BME280;22607;49.550;11.940;2024-03-02T03:55:02;95819.63;;;6.47;100.00
36598;BME280;22607;49.550;11.940;2024-03-02T03:57:29;95823.03;;;6.48;100.00
36598;BME280;22607;49.550;11.940;2024-03-02T03:59:57;95817.16;;;6.54;100.00
36598;BME280;22607;49.550;11.940;2024-03-02T04:02:29;95819.56;;;6.55;100.00
36598;BME280;22607;49.550;11.940;2024-03-02T04:04:55;95811.75;;;6.55;100.00
36598;BME280;22607;49.550;11.940;2024-03-02T04:07:23;95806.88;;;6.52;100.00
36598;BME280;22607;49.550;11.940;2024-03-02T04:09:49;95802.34;;;6.46;100.00
36598;BME280;22607;49.550;11.940;2024-03-02T04:12:16;95777.53;;;6.27;100.00
36598;BME280;22607;49.550;11.940;2024-03-02T04:14:46;95792.44;;;6.41;100.00
36598;BME280;22607;49.550;11.940;2024-03-02T04:17:15;95807.22;;;6.49;100.00
36598;BME280;22607;49.550;11.940;2024-03-02T04:19:43;95813.38;;;6.56;100.00
36598;BME280;22607;49.550;11.940;2024-03-02T04:22:10;95817.31;;;6.52;100.00
36598;BME280;22607;49.550;11.940;2024-03-02T04:24:46;95825.31;;;6.51;100.00
36598;BME280;22607;49.550;11.940;2024-03-02T04:27:14;95818.00;;;6.46;100.00
36598;BME280;22607;49.550;11.940;2024-03-02T04:29:41;95819.66;;;6.39;100.00
36598;BME280;22607;49.550;11.940;2024-03-02T04:32:08;95829.88;;;6.49;100.00
36598;BME280;22607;49.550;11.940;2024-03-02T04:34:35;95810.25;;;6.29;100.00
36598;BME280;22607;49.550;11.940;2024-03-02T04:37:02;95829.13;;;6.40;100.00
36598;BME280;22607;49.550;11.940;2024-03-02T04:39:29;95838.06;;;6.46;100.00
36598;BME280;22607;49.550;11.940;2024-03-02T04:41:57;95838.03;;;6.54;100.00
36598;BME280;22607;49.550;11.940;2024-03-02T04:44:25;95820.28;;;6.41;100.00
36598;BME280;22607;49.550;11.940;2024-03-02T04:46:52;95824.84;;;6.47;100.00
36598;BME280;22607;49.550;11.940;2024-03-02T04:49:19;95801.28;;;6.32;100.00
36598;BME280;22607;49.550;11.940;2024-03-02T04:51:46;95843.34;;;6.61;100.00
36598;BME280;22607;49.550;11.940;2024-03-02T04:54:16;95830.06;;;6.47;100.00
36598;BME280;22607;49.550;11.940;2024-03-02T04:56:46;95838.81;;;6.54;100.00
36598;BME280;22607;49.550;11.940;2024-03-02T04:59:21;95843.28;;;6.46;100.00
36598;BME280;22607;49.550;11.940;2024-03-02T05:01:48;95832.28;;;6.59;100.00
36598;BME280;22607;49.550;11.940;2024-03-02T05:04:18;95839.47;;;6.56;100.00
36598;BME280;22607;49.550;11.940;2024-03-02T05:06:45;95848.22;;;6.64;100.00
36598;BME280;22607;49.550;11.940;2024-03-02T05:09:18;95845.66;;;6.55;100.00
36598;BME280;22607;49.550;11.940;2024-03-02T05:11:45;95841.72;;;6.60;100.00
36598;BME280;22607;49.550;11.940;2024-03-02T05:14:38;95859.19;;;6.59;100.00
36598;BME280;22607;49.550;11.940;2024-03-02T05:17:06;95860.94;;;6.67;100.00
36598;BME280;22607;49.550;11.940;2024-03-02T05:19:33;95848.88;;;6.66;100.00
36598;BME280;22607;49.550;11.940;2024-03-02T05:22:00;95854.44;;;6.63;100.00
36598;BME280;22607;49.550;11.940;2024-03-02T05:24:28;95854.81;;;6.51;100.00
36598;BME280;22607;49.550;11.940;2024-03-02T05:26:55;95853.47;;;6.55;100.00
36598;BME280;22607;49.550;11.940;2024-03-02T05:29:23;95863.72;;;6.65;100.00
36598;BME280;22607;49.550;11.940;2024-03-02T05:31:50;95857.34;;;6.68;100.00
36598;BME280;22607;49.550;11.940;2024-03-02T05:34:17;95846.94;;;6.60;100.00
36598;BME280;22607;49.550;11.940;2024-03-02T05:36:45;95844.03;;;6.54;100.00
36598;BME280;22607;49.550;11.940;2024-03-02T05:39:12;95855.06;;;6.65;100.00
36598;BME280;22607;49.550;11.940;2024-03-02T05:41:42;95858.69;;;6.55;100.00
36598;BME280;22607;49.550;11.940;2024-03-02T05:44:10;95857.81;;;6.72;100.00
36598;BME280;22607;49.550;11.940;2024-03-02T05:46:37;95850.03;;;6.63;100.00
36598;BME280;22607;49.550;11.940;2024-03-02T05:49:06;95837.78;;;6.64;100.00
36598;BME280;22607;49.550;11.940;2024-03-02T05:51:36;95850.50;;;6.67;100.00
36598;BME280;22607;49.550;11.940;2024-03-02T05:54:03;95860.25;;;6.73;100.00
36598;BME280;22607;49.550;11.940;2024-03-02T05:56:30;95846.28;;;6.66;100.00
36598;BME280;22607;49.550;11.940;2024-03-02T05:58:57;95857.94;;;6.78;100.00
36598;BME280;22607;49.550;11.940;2024-03-02T06:01:40;95866.25;;;6.82;100.00
36598;BME280;22607;49.550;11.940;2024-03-02T06:04:10;95854.00;;;6.82;100.00
36598;BME280;22607;49.550;11.940;2024-03-02T06:06:43;95854.34;;;6.79;100.00
36598;BME280;22607;49.550;11.940;2024-03-02T06:09:17;95862.22;;;6.71;100.00
36598;BME280;22607;49.550;11.940;2024-03-02T06:11:47;95857.69;;;6.65;100.00
36598;BME280;22607;49.550;11.940;2024-03-02T06:14:14;95853.47;;;6.55;100.00
36598;BME280;22607;49.550;11.940;2024-03-02T06:16:41;95851.28;;;6.67;100.00
36598;BME280;22607;49.550;11.940;2024-03-02T06:19:08;95861.28;;;6.64;100.00
36598;BME280;22607;49.550;11.940;2024-03-02T06:21:35;95859.94;;;6.68;100.00
36598;BME280;22607;49.550;11.940;2024-03-02T06:24:03;95854.78;;;6.60;100.00
36598;BME280;22607;49.550;11.940;2024-03-02T06:26:31;95842.72;;;6.59;100.00
36598;BME280;22607;49.550;11.940;2024-03-02T06:28:58;95850.16;;;6.70;100.00
36598;BME280;22607;49.550;11.940;2024-03-02T06:31:26;95867.56;;;6.78;100.00
36598;BME280;22607;49.550;11.940;2024-03-02T06:33:54;95862.00;;;6.81;100.00
36598;BME280;22607;49.550;11.940;2024-03-02T06:36:23;95863.50;;;6.75;100.00
36598;BME280;22607;49.550;11.940;2024-03-02T06:38:52;95867.22;;;6.81;100.00
36598;BME280;22607;49.550;11.940;2024-03-02T06:41:19;95866.00;;;6.92;100.00
36598;BME280;22607;49.550;11.940;2024-03-02T06:43:47;95858.94;;;7.01;100.00
36598;BME280;22607;49.550;11.940;2024-03-02T06:46:14;95874.50;;;7.17;100.00
36598;BME280;22607;49.550;11.940;2024-03-02T06:48:43;95868.75;;;7.22;100.00
36598;BME280;22607;49.550;11.940;2024-03-02T06:51:10;95858.59;;;7.27;100.00
36598;BME280;22607;49.550;11.940;2024-03-02T06:53:40;95840.31;;;7.27;100.00
36598;BME280;22607;49.550;11.940;2024-03-02T06:56:10;95867.09;;;7.44;100.00
36598;BME280;22607;49.550;11.940;2024-03-02T06:58:37;95847.72;;;7.39;100.00
36598;BME280;22607;49.550;11.940;2024-03-02T07:01:11;95872.00;;;7.62;100.00
36598;BME280;22607;49.550;11.940;2024-03-02T07:03:41;95847.66;;;7.47;100.00
36598;BME280;22607;49.550;11.940;2024-03-02T07:06:12;95847.88;;;7.60;100.00
36598;BME280;22607;49.550;11.940;2024-03-02T07:08:41;95874.59;;;7.86;100.00
36598;BME280;22607;49.550;11.940;2024-03-02T07:11:07;95869.81;;;7.90;100.00
36598;BME280;22607;49.550;11.940;2024-03-02T07:13:36;95865.31;;;7.98;100.00
36598;BME280;22607;49.550;11.940;2024-03-02T07:16:03;95861.97;;;7.90;100.00
36598;BME280;22607;49.550;11.940;2024-03-02T07:18:31;95863.50;;;8.14;100.00
36598;BME280;22607;49.550;11.940;2024-03-02T07:20:59;95865.75;;;8.02;100.00
36598;BME280;22607;49.550;11.940;2024-03-02T07:23:39;95874.41;;;7.87;100.00
36598;BME280;22607;49.550;11.940;2024-03-02T07:26:09;95864.13;;;7.86;100.00
36598;BME280;22607;49.550;11.940;2024-03-02T07:28:43;95877.56;;;7.98;100.00
36598;BME280;22607;49.550;11.940;2024-03-02T07:31:10;95873.50;;;7.95;100.00
36598;BME280;22607;49.550;11.940;2024-03-02T07:33:39;95837.50;;;7.67;100.00
36598;BME280;22607;49.550;11.940;2024-03-02T07:36:07;95881.28;;;8.04;100.00
36598;BME280;22607;49.550;11.940;2024-03-02T07:38:34;95841.13;;;7.81;100.00
36598;BME280;22607;49.550;11.940;2024-03-02T07:41:08;95840.97;;;7.98;100.00
36598;BME280;22607;49.550;11.940;2024-03-02T07:43:35;95869.63;;;8.21;100.00
36598;BME280;22607;49.550;11.940;2024-03-02T07:46:02;95879.72;;;8.24;100.00
36598;BME280;22607;49.550;11.940;2024-03-02T07:48:34;95869.72;;;8.28;100.00
36598;BME280;22607;49.550;11.940;2024-03-02T07:51:01;95880.09;;;8.21;100.00
36598;BME280;22607;49.550;11.940;2024-03-02T07:53:31;95882.16;;;8.41;100.00
36598;BME280;22607;49.550;11.940;2024-03-02T07:55:58;95904.75;;;8.57;100.00
36598;BME280;22607;49.550;11.940;2024-03-02T07:58:29;95903.28;;;8.24;100.00
36598;BME280;22607;49.550;11.940;2024-03-02T08:00:57;95902.53;;;8.31;100.00
36598;BME280;22607;49.550;11.940;2024-03-02T08:03:28;95888.03;;;8.28;100.00
36598;BME280;22607;49.550;11.940;2024-03-02T08:05:55;95910.34;;;8.54;100.00
36598;BME280;22607;49.550;11.940;2024-03-02T08:08:26;95898.25;;;8.53;100.00
36598;BME280;22607;49.550;11.940;2024-03-02T08:10:53;95903.16;;;8.78;100.00
36598;BME280;22607;49.550;11.940;2024-03-02T08:13:20;95901.47;;;8.70;100.00
36598;BME280;22607;49.550;11.940;2024-03-02T08:15:49;95902.25;;;8.71;100.00
36598;BME280;22607;49.550;11.940;2024-03-02T08:18:16;95916.66;;;8.60;100.00
36598;BME280;22607;49.550;11.940;2024-03-02T08:20:42;95909.59;;;8.45;100.00
36598;BME280;22607;49.550;11.940;2024-03-02T08:23:12;95903.09;;;8.56;100.00
36598;BME280;22607;49.550;11.940;2024-03-02T08:25:42;95883.69;;;8.50;100.00
36598;BME280;22607;49.550;11.940;2024-03-02T08:28:09;95892.81;;;8.39;100.00
36598;BME280;22607;49.550;11.940;2024-03-02T08:30:36;95906.59;;;8.48;100.00
36598;BME280;22607;49.550;11.940;2024-03-02T08:33:03;95912.31;;;8.37;100.00
36598;BME280;22607;49.550;11.940;2024-03-02T08:35:30;95917.25;;;8.47;100.00
36598;BME280;22607;49.550;11.940;2024-03-02T08:38:03;95918.34;;;8.22;100.00
36598;BME280;22607;49.550;11.940;2024-03-02T08:40:30;95933.06;;;8.38;100.00
36598;BME280;22607;49.550;11.940;2024-03-02T08:42:57;95940.09;;;8.38;100.00
36598;BME280;22607;49.550;11.940;2024-03-02T08:45:26;95935.50;;;8.25;100.00
36598;BME280;22607;49.550;11.940;2024-03-02T08:47:59;95942.00;;;8.29;100.00
36598;BME280;22607;49.550;11.940;2024-03-02T08:50:27;95936.91;;;8.12;100.00
36598;BME280;22607;49.550;11.940;2024-03-02T08:52:55;95945.41;;;8.45;100.00
36598;BME280;22607;49.550;11.940;2024-03-02T08:55:24;95918.97;;;8.39;100.00
36598;BME280;22607;49.550;11.940;2024-03-02T08:57:50;95942.34;;;8.26;100.00
36598;BME280;22607;49.550;11.940;2024-03-02T09:00:22;95948.78;;;8.00;100.00
36598;BME280;22607;49.550;11.940;2024-03-02T09:02:50;95948.47;;;8.18;100.00
36598;BME280;22607;49.550;11.940;2024-03-02T09:05:17;95938.63;;;8.20;100.00
36598;BME280;22607;49.550;11.940;2024-03-02T09:07:45;95947.22;;;8.29;100.00
36598;BME280;22607;49.550;11.940;2024-03-02T09:10:12;95931.34;;;8.16;100.00
36598;BME280;22607;49.550;11.940;2024-03-02T09:12:39;95928.47;;;7.87;100.00
36598;BME280;22607;49.550;11.940;2024-03-02T09:15:07;95938.81;;;8.04;100.00
36598;BME280;22607;49.550;11.940;2024-03-02T09:17:36;95935.41;;;8.18;100.00
36598;BME280;22607;49.550;11.940;2024-03-02T09:20:05;95949.50;;;7.94;100.00
36598;BME280;22607;49.550;11.940;2024-03-02T09:22:33;95947.41;;;7.89;100.00
36598;BME280;22607;49.550;11.940;2024-03-02T09:25:00;95950.25;;;8.18;100.00
36598;BME280;22607;49.550;11.940;2024-03-02T09:27:27;95947.56;;;8.26;100.00
36598;BME280;22607;49.550;11.940;2024-03-02T09:29:54;95955.63;;;8.39;100.00
36598;BME280;22607;49.550;11.940;2024-03-02T09:32:29;95944.03;;;8.19;100.00
36598;BME280;22607;49.550;11.940;2024-03-02T09:34:56;95955.84;;;8.14;100.00
36598;BME280;22607;49.550;11.940;2024-03-02T09:37:25;95945.38;;;8.14;100.00
36598;BME280;22607;49.550;11.940;2024-03-02T09:39:56;95944.47;;;8.07;100.00
36598;BME280;22607;49.550;11.940;2024-03-02T09:42:24;95931.28;;;7.85;100.00
36598;BME280;22607;49.550;11.940;2024-03-02T09:44:52;95949.19;;;8.27;100.00
36598;BME280;22607;49.550;11.940;2024-03-02T09:47:19;95925.09;;;8.01;100.00
36598;BME280;22607;49.550;11.940;2024-03-02T09:49:47;95956.22;;;8.41;100.00
36598;BME280;22607;49.550;11.940;2024-03-02T09:52:16;95953.81;;;8.25;100.00
36598;BME280;22607;49.550;11.940;2024-03-02T09:54:44;95961.72;;;8.17;100.00
36598;BME280;22607;49.550;11.940;2024-03-02T09:57:15;95959.84;;;8.40;100.00
36598;BME280;22607;49.550;11.940;2024-03-02T09:59:44;95936.00;;;8.05;100.00
36598;BME280;22607;49.550;11.940;2024-03-02T10:02:12;95964.34;;;8.17;100.00
36598;BME280;22607;49.550;11.940;2024-03-02T10:04:39;95962.28;;;8.27;100.00
36598;BME280;22607;49.550;11.940;2024-03-02T10:09:39;95967.56;;;8.19;100.00
36598;BME280;22607;49.550;11.940;2024-03-02T10:12:11;95945.41;;;8.45;100.00
36598;BME280;22607;49.550;11.940;2024-03-02T10:14:41;95950.28;;;8.48;100.00
36598;BME280;22607;49.550;11.940;2024-03-02T10:17:11;95942.16;;;8.27;100.00
36598;BME280;22607;49.550;11.940;2024-03-02T10:19:41;95911.78;;;8.26;100.00
36598;BME280;22607;49.550;11.940;2024-03-02T10:22:09;95927.38;;;8.50;100.00
36598;BME280;22607;49.550;11.940;2024-03-02T10:24:43;95918.91;;;8.48;100.00
36598;BME280;22607;49.550;11.940;2024-03-02T10:27:16;95937.50;;;8.53;100.00
36598;BME280;22607;49.550;11.940;2024-03-02T10:29:46;95936.56;;;8.16;100.00
36598;BME280;22607;49.550;11.940;2024-03-02T10:32:16;95950.09;;;8.34;100.00
36598;BME280;22607;49.550;11.940;2024-03-02T10:34:45;95951.72;;;8.20;100.00
36598;BME280;22607;49.550;11.940;2024-03-02T10:37:14;95949.66;;;8.46;100.00
36598;BME280;22607;49.550;11.940;2024-03-02T10:39:42;95940.91;;;8.38;100.00
36598;BME280;22607;49.550;11.940;2024-03-02T10:42:10;95942.25;;;8.34;100.00
36598;BME280;22607;49.550;11.940;2024-03-02T10:44:39;95945.25;;;8.61;100.00
36598;BME280;22607;49.550;11.940;2024-03-02T10:47:08;95929.72;;;8.45;100.00
36598;BME280;22607;49.550;11.940;2024-03-02T10:49:37;95937.59;;;8.60;100.00
36598;BME280;22607;49.550;11.940;2024-03-02T10:52:06;95917.25;;;8.47;100.00
36598;BME280;22607;49.550;11.940;2024-03-02T10:54:39;95916.25;;;8.18;100.00
36598;BME280;22607;49.550;11.940;2024-03-02T10:57:10;95932.16;;;8.46;100.00
36598;BME280;22607;49.550;11.940;2024-03-02T10:59:52;95917.63;;;8.59;100.00
36598;BME280;22607;49.550;11.940;2024-03-02T11:02:21;95921.06;;;8.74;100.00
36598;BME280;22607;49.550;11.940;2024-03-02T11:04:54;95878.75;;;8.92;100.00
36598;BME280;22607;49.550;11.940;2024-03-02T11:07:25;95920.53;;;9.16;100.00
36598;BME280;22607;49.550;11.940;2024-03-02T11:10:01;95890.06;;;8.93;100.00
36598;BME280;22607;49.550;11.940;2024-03-02T11:12:43;95918.75;;;9.01;100.00
36598;BME280;22607;49.550;11.940;2024-03-02T11:15:17;95891.50;;;9.17;100.00
36598;BME280;22607;49.550;11.940;2024-03-02T11:17:47;95879.53;;;9.30;100.00
36598;BME280;22607;49.550;11.940;2024-03-02T11:20:19;95889.81;;;9.31;100.00
36598;BME280;22607;49.550;11.940;2024-03-02T11:22:52;95878.38;;;9.17;100.00
36598;BME280;22607;49.550;11.940;2024-03-02T11:25:27;95887.00;;;9.11;100.00
36598;BME280;22607;49.550;11.940;2024-03-02T11:28:02;95889.50;;;9.19;100.00
36598;BME280;22607;49.550;11.940;2024-03-02T11:33:06;95897.09;;;9.58;100.00
36598;BME280;22607;49.550;11.940;2024-03-02T11:35:43;95873.66;;;9.28;100.00
36598;BME280;22607;49.550;11.940;2024-03-02T11:38:16;95883.88;;;9.44;100.00
36598;BME280;22607;49.550;11.940;2024-03-02T11:40:46;95892.28;;;9.62;100.00
36598;BME280;22607;49.550;11.940;2024-03-02T11:43:21;95883.41;;;9.34;100.00
36598;BME280;22607;49.550;11.940;2024-03-02T11:45:59;95867.19;;;9.24;100.00
36598;BME280;22607;49.550;11.940;2024-03-02T11:48:27;95850.75;;;9.15;100.00
36598;BME280;22607;49.550;11.940;2024-03-02T11:50:58;95869.53;;;9.40;100.00
36598;BME280;22607;49.550;11.940;2024-03-02T11:53:28;95863.09;;;9.43;100.00
36598;BME280;22607;49.550;11.940;2024-03-02T11:56:01;95877.38;;;9.62;100.00
36598;BME280;22607;49.550;11.940;2024-03-02T11:58:32;95858.44;;;9.16;100.00
36598;BME280;22607;49.550;11.940;2024-03-02T12:01:03;95856.31;;;9.27;100.00
36598;BME280;22607;49.550;11.940;2024-03-02T12:03:35;95870.28;;;9.34;100.00
36598;BME280;22607;49.550;11.940;2024-03-02T12:06:03;95873.09;;;9.32;100.00
36598;BME280;22607;49.550;11.940;2024-03-02T12:08:32;95862.19;;;9.29;100.00
36598;BME280;22607;49.550;11.940;2024-03-02T12:11:01;95859.44;;;9.37;100.00
36598;BME280;22607;49.550;11.940;2024-03-02T12:13:30;95855.94;;;9.52;100.00
36598;BME280;22607;49.550;11.940;2024-03-02T12:15:59;95857.78;;;9.58;100.00
36598;BME280;22607;49.550;11.940;2024-03-02T12:18:28;95834.09;;;9.44;100.00
36598;BME280;22607;49.550;11.940;2024-03-02T12:20:55;95829.25;;;9.41;100.00
36598;BME280;22607;49.550;11.940;2024-03-02T12:23:25;95831.97;;;9.55;100.00
36598;BME280;22607;49.550;11.940;2024-03-02T12:25:53;95817.63;;;9.51;100.00
36598;BME280;22607;49.550;11.940;2024-03-02T12:28:20;95835.28;;;9.70;100.00
36598;BME280;22607;49.550;11.940;2024-03-02T12:30:48;95847.13;;;9.59;100.00
36598;BME280;22607;49.550;11.940;2024-03-02T12:33:16;95853.31;;;9.52;100.00
36598;BME280;22607;49.550;11.940;2024-03-02T12:35:45;95848.00;;;9.67;100.00
36598;BME280;22607;49.550;11.940;2024-03-02T12:38:14;95836.53;;;9.75;100.00
36598;BME280;22607;49.550;11.940;2024-03-02T12:40:47;95813.63;;;9.55;100.00
36598;BME280;22607;49.550;11.940;2024-03-02T12:43:14;95830.13;;;9.55;100.00
36598;BME280;22607;49.550;11.940;2024-03-02T12:45:47;95837.53;;;9.74;100.00
36598;BME280;22607;49.550;11.940;2024-03-02T12:48:14;95832.31;;;9.74;100.00
36598;BME280;22607;49.550;11.940;2024-03-02T12:50:41;95806.00;;;9.60;100.00
36598;BME280;22607;49.550;11.940;2024-03-02T12:53:16;95799.97;;;9.66;100.00
36598;BME280;22607;49.550;11.940;2024-03-02T12:55:44;95811.47;;;9.65;100.00
36598;BME280;22607;49.550;11.940;2024-03-02T12:58:22;95826.13;;;9.88;100.00
36598;BME280;22607;49.550;11.940;2024-03-02T13:00:50;95818.88;;;9.90;100.00
36598;BME280;22607;49.550;11.940;2024-03-02T13:03:21;95794.44;;;9.90;100.00
36598;BME280;22607;49.550;11.940;2024-03-02T13:05:54;95814.56;;;9.76;100.00
36598;BME280;22607;49.550;11.940;2024-03-02T13:08:21;95811.75;;;9.77;100.00
36598;BME280;22607;49.550;11.940;2024-03-02T13:10:51;95809.50;;;9.74;100.00